createdAt,value
2023-01-26T00:04:25.495Z,26.27
2023-01-26T00:09:27.194Z,25.00
2023-01-26T00:14:48.962Z,24.93
2023-01-26T00:19:50.639Z,23.53
2023-01-26T00:24:52.422Z,25.47
2023-01-26T00:29:54.109Z,26.23
2023-01-26T00:34:55.774Z,25.67
2023-01-26T00:39:57.529Z,27.23
2023-01-26T00:44:59.236Z,26.80
2023-01-26T00:50:00.909Z,27.50
2023-01-26T00:55:02.602Z,27.30
2023-01-26T01:00:06.273Z,26.07
2023-01-26T01:05:08.454Z,26.63
2023-01-26T01:10:11.038Z,24.20
2023-01-26T01:15:13.407Z,25.37
2023-01-26T01:20:15.659Z,25.03
2023-01-26T01:25:17.413Z,22.67
2023-01-26T01:30:19.181Z,22.10
2023-01-26T01:35:20.868Z,20.17
2023-01-26T01:40:22.557Z,20.67
2023-01-26T01:45:38.035Z,21.17
2023-01-26T01:50:40.072Z,21.07
2023-01-26T01:55:42.645Z,20.53
2023-01-26T02:00:44.462Z,19.83
2023-01-26T02:05:57.277Z,21.50
2023-01-26T02:11:06.404Z,21.33
2023-01-26T02:16:08.223Z,21.83
2023-01-26T02:21:14.016Z,20.77
2023-01-26T02:26:18.543Z,21.33
2023-01-26T02:31:22.837Z,22.17
2023-01-26T02:36:30.620Z,21.47
2023-01-26T02:41:50.795Z,22.00
2023-01-26T02:46:53.773Z,21.43
2023-01-26T02:51:55.404Z,21.00
2023-01-26T02:56:57.350Z,21.13
2023-01-26T03:01:59.296Z,22.83
2023-01-26T03:07:00.997Z,22.37
2023-01-26T03:12:03.690Z,21.07
2023-01-26T03:17:05.379Z,20.50
2023-01-26T03:22:28.930Z,19.80
2023-01-26T03:27:38.890Z,20.43
2023-01-26T03:32:40.906Z,20.70
2023-01-26T03:37:43.761Z,20.93
2023-01-26T03:43:04.509Z,20.83
2023-01-26T03:48:30.091Z,20.93
2023-01-26T03:53:50.577Z,20.73
2023-01-26T03:58:54.336Z,19.77
2023-01-26T04:04:15.664Z,20.10
2023-01-26T04:09:17.651Z,20.63
2023-01-26T04:14:49.524Z,20.87
2023-01-26T04:20:10.905Z,19.60
2023-01-26T04:25:15.483Z,21.27
2023-01-26T04:30:18.328Z,20.93
2023-01-26T04:35:20.135Z,19.87
2023-01-26T04:40:22.006Z,20.43
2023-01-26T04:45:23.640Z,19.63
2023-01-26T04:50:26.288Z,20.10
2023-01-26T04:55:27.958Z,21.37
2023-01-26T05:00:29.648Z,18.67
2023-01-26T05:05:35.158Z,21.00
2023-01-26T05:10:36.827Z,18.47
2023-01-26T05:15:38.840Z,16.63
2023-01-26T05:20:40.502Z,16.73
2023-01-26T05:25:42.784Z,18.87
2023-01-26T05:30:44.531Z,16.43
2023-01-26T05:35:46.266Z,17.47
2023-01-26T05:40:48.025Z,18.17
2023-01-26T05:45:49.754Z,16.57
2023-01-26T05:50:51.456Z,17.03
2023-01-26T05:55:53.123Z,15.50
2023-01-26T06:00:54.783Z,14.77
2023-01-26T06:05:56.516Z,14.53
2023-01-26T06:11:01.504Z,14.57
2023-01-26T06:16:03.364Z,13.97
2023-01-26T06:21:05.197Z,13.97
2023-01-26T06:26:08.798Z,15.23
2023-01-26T06:31:11.944Z,14.47
2023-01-26T06:36:15.496Z,14.27
2023-01-26T06:41:17.764Z,13.90
2023-01-26T06:46:19.707Z,14.17
2023-01-26T06:51:21.374Z,13.53
2023-01-26T06:56:23.860Z,15.60
2023-01-26T07:01:26.909Z,15.43
2023-01-26T07:06:28.994Z,15.37
2023-01-26T07:11:32.376Z,16.47
2023-01-26T07:16:34.195Z,15.93
2023-01-26T07:21:36.089Z,15.97
2023-01-26T07:26:37.850Z,15.83
2023-01-26T07:31:41.271Z,15.80
2023-01-26T07:36:43.210Z,16.47
2023-01-26T07:41:44.859Z,15.80
2023-01-26T07:46:46.575Z,16.97
2023-01-26T07:51:48.308Z,16.97
2023-01-26T07:56:54.537Z,17.20
2023-01-26T08:01:56.249Z,17.47
2023-01-26T08:06:57.930Z,18.37
2023-01-26T08:11:59.888Z,18.10
2023-01-26T08:17:01.736Z,17.23
2023-01-26T08:22:03.430Z,19.17
2023-01-26T08:27:05.085Z,18.17
2023-01-26T08:32:08.249Z,19.63
2023-01-26T08:37:10.029Z,18.97
2023-01-26T08:42:11.683Z,18.10
2023-01-26T08:47:13.369Z,17.33
2023-01-26T08:52:15.113Z,19.57
2023-01-26T08:57:16.808Z,19.37
2023-01-26T09:02:18.610Z,19.90
2023-01-26T09:07:20.341Z,21.60
2023-01-26T09:12:22.111Z,21.37
2023-01-26T09:17:23.828Z,21.77
2023-01-26T09:22:25.491Z,21.93
2023-01-26T09:27:27.192Z,22.60
2023-01-26T09:32:29.918Z,21.87
2023-01-26T09:37:31.591Z,23.17
2023-01-26T09:42:45.388Z,22.73
2023-01-26T09:47:58.747Z,21.00
2023-01-26T09:53:20.996Z,21.57
2023-01-26T09:58:37.467Z,22.57
2023-01-26T10:03:45.133Z,21.63
2023-01-26T10:08:47.752Z,20.73
2023-01-26T10:13:55.755Z,20.47
2023-01-26T10:19:06.505Z,20.63
2023-01-26T10:24:11.964Z,21.10
2023-01-26T10:29:18.144Z,21.20
2023-01-26T10:34:26.154Z,21.13
2023-01-26T10:39:27.822Z,20.33
2023-01-26T10:44:36.478Z,19.57
2023-01-26T10:49:38.142Z,20.73
2023-01-26T10:54:43.659Z,18.60
2023-01-26T11:00:01.209Z,18.17
2023-01-26T11:05:07.377Z,16.80
2023-01-26T11:10:25.810Z,17.43
2023-01-26T11:15:29.800Z,17.97
2023-01-26T11:20:58.247Z,17.57
2023-01-26T11:26:25.732Z,18.23
2023-01-26T11:31:39.718Z,17.70
2023-01-26T11:36:58.650Z,16.50
2023-01-26T11:42:20.256Z,15.70
2023-01-26T11:47:50.583Z,16.73
2023-01-26T11:53:16.011Z,14.90
2023-01-26T11:58:43.163Z,17.73
2023-01-26T12:03:47.237Z,17.67
2023-01-26T12:08:59.252Z,17.37
2023-01-26T12:14:20.724Z,16.90
2023-01-26T12:19:43.936Z,16.10
2023-01-26T12:25:20.153Z,17.40
2023-01-26T12:30:57.907Z,15.10
2023-01-26T12:36:19.429Z,16.27
2023-01-26T12:41:40.259Z,15.30
2023-01-26T12:46:47.722Z,15.20
2023-01-26T12:51:55.925Z,16.07
2023-01-26T12:57:00.511Z,15.47
2023-01-26T13:02:36.018Z,16.60
2023-01-26T13:07:40.213Z,18.70
2023-01-26T13:12:50.270Z,16.00
2023-01-26T13:18:00.536Z,15.63
2023-01-26T13:23:02.243Z,15.90
2023-01-26T13:28:12.320Z,15.87
2023-01-26T13:33:22.942Z,14.77
2023-01-26T13:38:35.426Z,14.90
2023-01-26T13:44:01.729Z,16.53
2023-01-26T13:49:03.413Z,14.80
2023-01-26T13:54:13.468Z,14.90
2023-01-26T13:59:20.704Z,13.63
2023-01-26T14:04:28.148Z,14.77
2023-01-26T14:09:33.753Z,14.70
2023-01-26T14:14:37.292Z,14.87
2023-01-26T14:19:42.259Z,14.63
2023-01-26T14:24:48.781Z,14.50
2023-01-26T14:29:50.501Z,15.00
2023-01-26T14:34:54.766Z,14.73
2023-01-26T14:40:15.223Z,14.03
2023-01-26T14:45:18.286Z,14.77
2023-01-26T14:50:28.101Z,15.03
2023-01-26T14:55:33.432Z,15.70
2023-01-26T15:00:36.898Z,15.20
2023-01-26T15:05:42.207Z,16.30
2023-01-26T15:11:30.265Z,17.90
2023-01-26T15:16:52.129Z,18.10
2023-01-26T15:21:53.872Z,18.37
2023-01-26T15:27:05.338Z,18.20
2023-01-26T15:32:07.044Z,16.33
2023-01-26T15:37:28.886Z,15.53
2023-01-26T15:42:31.244Z,15.10
2023-01-26T15:47:32.942Z,15.13
2023-01-26T15:52:34.659Z,14.43
2023-01-26T15:57:36.322Z,14.90
2023-01-26T16:02:38.043Z,14.40
2023-01-26T16:07:39.709Z,15.13
2023-01-26T16:12:41.424Z,15.37
2023-01-26T16:17:43.083Z,14.77
2023-01-26T16:22:44.777Z,16.23
2023-01-26T16:27:46.434Z,14.97
2023-01-26T16:32:48.816Z,13.70
2023-01-26T16:37:51.039Z,15.57
2023-01-26T16:42:54.115Z,15.60
2023-01-26T16:47:57.433Z,14.97
2023-01-26T16:52:59.534Z,13.97
2023-01-26T16:58:01.404Z,15.67
2023-01-26T17:03:03.323Z,14.00
2023-01-26T17:08:05.290Z,15.77
2023-01-26T17:13:07.452Z,15.27
2023-01-26T17:18:13.097Z,20.40
2023-01-26T17:23:14.942Z,20.80
2023-01-26T17:28:16.611Z,17.37
2023-01-26T17:33:18.337Z,17.30
2023-01-26T17:38:20.070Z,18.90
2023-01-26T17:43:22.101Z,16.27
2023-01-26T17:48:23.804Z,18.27
2023-01-26T17:53:25.569Z,16.73
2023-01-26T17:58:27.234Z,16.60
2023-01-26T18:03:28.991Z,16.27
2023-01-26T18:08:30.758Z,16.23
2023-01-26T18:13:32.907Z,14.13
2023-01-26T18:18:34.951Z,16.80
2023-01-26T18:23:36.650Z,15.70
2023-01-26T18:28:40.651Z,14.87
2023-01-26T18:33:42.783Z,30.63
2023-01-26T18:38:49.417Z,16.03
2023-01-26T18:43:53.139Z,16.50
2023-01-26T18:49:00.410Z,17.03
2023-01-26T18:54:04.201Z,18.43
2023-01-26T18:59:09.428Z,18.63
2023-01-26T19:04:11.210Z,21.13
2023-01-26T19:09:12.990Z,24.50
2023-01-26T19:14:15.386Z,25.70
2023-01-26T19:19:17.107Z,22.30
2023-01-26T19:24:18.864Z,20.33
2023-01-26T19:29:20.566Z,19.07
2023-01-26T19:34:23.092Z,34.27
2023-01-26T19:39:24.923Z,19.53
2023-01-26T19:44:26.647Z,20.27
2023-01-26T19:49:28.312Z,17.13
2023-01-26T19:54:29.971Z,15.83
2023-01-26T19:59:31.618Z,17.30
2023-01-26T20:04:33.288Z,17.77
2023-01-26T20:09:35.709Z,19.50
2023-01-26T20:14:37.490Z,16.47
2023-01-26T20:19:39.155Z,14.57
2023-01-26T20:24:41.032Z,14.37
2023-01-26T20:29:42.736Z,12.47
2023-01-26T20:34:44.888Z,14.07
2023-01-26T20:39:47.048Z,13.20
2023-01-26T20:44:48.803Z,11.80
2023-01-26T20:49:52.780Z,14.30
2023-01-26T20:54:54.469Z,17.13
2023-01-26T20:59:56.175Z,10.40
2023-01-26T21:04:58.184Z,10.40
2023-01-26T21:09:59.845Z,10.03
2023-01-26T21:15:01.505Z,9.20
2023-01-26T21:20:03.416Z,8.73
2023-01-26T21:25:05.461Z,7.53
2023-01-26T21:30:07.632Z,7.87
2023-01-26T21:35:09.647Z,8.10
2023-01-26T21:40:12.115Z,7.13
2023-01-26T21:45:32.757Z,8.43
2023-01-26T21:50:55.864Z,11.40
2023-01-26T21:55:57.681Z,8.27
2023-01-26T22:01:06.603Z,8.63
2023-01-26T22:06:08.284Z,9.67
2023-01-26T22:11:09.971Z,14.80
2023-01-26T22:16:12.143Z,8.33
2023-01-26T22:21:13.954Z,6.50
2023-01-26T22:26:21.433Z,7.50
2023-01-26T22:31:33.058Z,6.90
2023-01-26T22:36:34.898Z,7.10
2023-01-26T22:41:37.633Z,6.43
2023-01-26T22:46:39.524Z,7.77
2023-01-26T22:51:41.379Z,7.70
2023-01-26T22:56:43.037Z,8.33
2023-01-26T23:01:45.034Z,7.53
2023-01-26T23:06:46.715Z,8.77
2023-01-26T23:11:48.438Z,7.93
2023-01-26T23:16:50.166Z,8.47
2023-01-26T23:21:52.076Z,9.13
2023-01-26T23:26:53.747Z,9.73
2023-01-26T23:31:55.546Z,9.27
2023-01-26T23:36:57.312Z,9.20
2023-01-26T23:41:58.987Z,9.57
2023-01-26T23:47:00.819Z,10.23
2023-01-26T23:52:02.673Z,10.73
2023-01-26T23:57:04.546Z,11.57
